Farmington, NM

11:43 PM MDT on August 23, 2016 (GMT -0600)
Butler and 23rd Street | | Change Station

Elev 5500 ft 36.75 °N, 108.20 °W | Updated 16 seconds ago

Overcast
Overcast
59.0 °F
Feels Like 59.0 °F
N
7.0
Wind Variable Wind from West
Gusts 9.0 mph

Today
High -- | Low -- °F
--% Chance of Precip.
Yesterday
High -- | Low -- °F
Precip. -- in
Pressure 30.11 in
Visibility 10.0 miles
Clouds Overcast 9000 ft
Dew Point 58 °F
Humidity 98%
Rainfall 0.36 in
Snow Depth Not available.
6:37 AM 7:52 PM
Waning Gibbous, 60% visible
METAR KFMN 240453Z AUTO 25007KT 10SM OVC090 15/12 A3024 RMK AO2 SLP196 T01500117
Pressure 30.11 in
Visibility 10.0 miles
Clouds Overcast 9000 ft
Dew Point 58 °F
Humidity 98%
Rainfall 0.36 in
Snow Depth Not available.
6:37 AM 7:52 PM
Waning Gibbous, 60% visible
METAR KFMN 240453Z AUTO 25007KT 10SM OVC090 15/12 A3024 RMK AO2 SLP196 T01500117

10-Day Weather Forecast

Almanac

Astronomy

Aug. 23, 2016 Rise Set
Actual Time
Civil Twilight
Nautical Twilight
Astronomical Twilight
Moon
Length of Visible Light
Length of Day
Tomorrow will be .
, % of the Moon is Illuminated

Today's Extremes

State Highs State Lows

Community

WunderPhotos

Upload Photos

1,934,554 photos uploaded!

WunderBlog® & News

Nearby

Air Quality

  Air Quality AQ Index Pollutant
Not available.

Snow Depth

Station Depth Elevation

Earthquake Activity

City Distance Mag. Time & Date
Minimum magnitude displayed is 2.5.

Coastal Water Temperatures

Place Temperature

Stations

Nearby Weather Stations

Station Location Temp. Windchill Dew Point Humidity Wind Precip. Elev Updated Type
                   

Watches & Warnings

There are currently no watches in effect.